Time;durP1;ratioP1;P1;durP2;ratioP2;P2;SDS_P1;SDS_P2;PMS_P1;PMS_P2;Temp;Humidity;BMP_temperature;BMP_pressure;BME280_temperature;BME280_humidity;BME280_pressure;Samples;Min_cycle;Max_cycle;Signal;HPM_P1;HPM_P2
2023/08/23 00:03:30;;;;;;;15.20;6.75;;;;;;;24.71;100.00;100594.59;20957524;28;20041;-73
2023/08/23 00:13:52;;;;;;;14.95;8.02;;;;;;;24.45;100.00;100598.44;20960948;28;20042;-73
2023/08/23 00:24:16;;;;;;;14.80;7.85;;;;;;;24.42;100.00;100610.25;20957088;28;20477;-72
2023/08/23 00:34:39;;;;;;;12.15;7.90;;;;;;;24.45;100.00;100614.66;20990060;28;20048;-74
2023/08/23 00:45:06;;;;;;;14.00;8.25;;;;;;;24.34;100.00;100609.72;20949430;28;20400;-73
2023/08/23 00:55:30;;;;;;;14.23;8.45;;;;;;;24.26;100.00;100600.19;20965271;28;20044;-73
2023/08/23 01:06:03;;;;;;;12.90;7.95;;;;;;;24.11;100.00;100591.78;20952128;28;20049;-73
2023/08/23 01:16:27;;;;;;;14.88;8.50;;;;;;;24.04;100.00;100584.00;20963958;28;20045;-73
2023/08/23 01:26:51;;;;;;;16.67;8.93;;;;;;;23.59;100.00;100590.41;20969337;28;20048;-73
2023/08/23 01:37:15;;;;;;;15.70;9.02;;;;;;;23.65;100.00;100591.97;20944289;28;20052;-72
2023/08/23 01:47:41;;;;;;;11.35;8.40;;;;;;;23.50;100.00;100589.91;20955502;28;20098;-73
2023/08/23 01:58:04;;;;;;;12.00;8.35;;;;;;;23.09;100.00;100591.50;20943433;28;20059;-73
2023/08/23 02:08:28;;;;;;;11.75;8.30;;;;;;;23.43;100.00;100597.31;20941575;28;20489;-72
2023/08/23 02:18:50;;;;;;;15.27;8.32;;;;;;;23.32;100.00;100596.84;20957515;28;20159;-73
2023/08/23 02:29:14;;;;;;;12.23;8.15;;;;;;;23.28;100.00;100595.22;20958311;28;20049;-72
2023/08/23 02:39:37;;;;;;;13.88;8.73;;;;;;;23.33;100.00;100604.88;20943611;28;20090;-72
2023/08/23 02:50:01;;;;;;;13.95;9.13;;;;;;;23.28;100.00;100609.56;20933456;28;20055;-72
2023/08/23 03:00:23;;;;;;;12.80;8.75;;;;;;;23.19;100.00;100611.75;20959574;28;20143;-73
2023/08/23 03:10:47;;;;;;;14.70;9.25;;;;;;;23.16;100.00;100601.09;20953211;28;20067;-72
2023/08/23 03:21:10;;;;;;;16.85;8.93;;;;;;;23.05;100.00;100609.56;20950480;28;20040;-72
2023/08/23 03:31:36;;;;;;;15.52;8.82;;;;;;;23.10;100.00;100612.13;20954564;28;20578;-73
2023/08/23 03:42:01;;;;;;;13.70;8.63;;;;;;;23.06;100.00;100614.03;20941616;28;20044;-72
2023/08/23 03:52:25;;;;;;;14.15;9.35;;;;;;;23.00;100.00;100609.75;20936006;28;20131;-72
2023/08/23 04:02:48;;;;;;;12.07;7.75;;;;;;;23.03;100.00;100615.03;20964648;28;20080;-72
2023/08/23 04:13:12;;;;;;;12.68;7.18;;;;;;;23.37;100.00;100609.19;20963343;28;20058;-72
2023/08/23 04:23:34;;;;;;;13.13;6.53;;;;;;;23.88;100.00;100615.28;20969830;28;20413;-72
2023/08/23 04:33:59;;;;;;;13.07;6.05;;;;;;;24.51;100.00;100617.06;20948445;28;20119;-72
2023/08/23 04:44:21;;;;;;;11.75;5.70;;;;;;;25.18;100.00;100608.63;20955222;28;20043;-72
2023/08/23 04:54:46;;;;;;;13.88;5.80;;;;;;;25.85;100.00;100613.50;20962596;28;20471;-73
2023/08/23 05:05:09;;;;;;;10.77;5.43;;;;;;;26.63;100.00;100603.16;20952093;28;20053;-73
2023/08/23 05:15:33;;;;;;;16.33;4.75;;;;;;;27.54;100.00;100614.41;20946508;28;20093;-73
2023/08/23 05:25:57;;;;;;;10.52;5.43;;;;;;;28.51;100.00;100614.06;20941184;28;20060;-73
2023/08/23 05:36:21;;;;;;;11.88;4.97;;;;;;;29.60;96.43;100608.09;20941048;28;20546;-73
2023/08/23 05:46:44;;;;;;;17.98;4.70;;;;;;;30.56;75.95;100612.50;20930555;28;20132;-73
2023/08/23 05:57:09;;;;;;;10.00;4.22;;;;;;;31.70;71.33;100628.84;20939638;28;20044;-73
2023/08/23 06:07:32;;;;;;;10.97;4.03;;;;;;;32.57;64.52;100623.91;20954996;28;20048;-73
2023/08/23 06:17:58;;;;;;;9.18;3.63;;;;;;;33.17;59.01;100633.75;20984239;28;20519;-73
2023/08/23 06:28:22;;;;;;;10.18;3.75;;;;;;;33.79;50.88;100639.63;20959733;28;20052;-72
2023/08/23 06:38:47;;;;;;;8.68;3.55;;;;;;;34.07;48.81;100634.56;20961550;28;20062;-73
2023/08/23 06:49:10;;;;;;;9.50;3.55;;;;;;;34.38;47.90;100629.13;20962807;28;20080;-73
2023/08/23 06:59:34;;;;;;;12.63;3.55;;;;;;;34.51;47.40;100625.31;20979312;28;20052;-73
2023/08/23 07:09:56;;;;;;;11.07;3.58;;;;;;;34.58;45.93;100624.66;20997645;28;20076;-72
2023/08/23 07:20:21;;;;;;;12.48;3.85;;;;;;;34.82;45.30;100642.72;20973468;28;20102;-73
2023/08/23 07:30:45;;;;;;;;;;;;;;;34.72;46.38;100643.53;20949598;28;20098;-73
2023/08/23 07:41:10;;;;;;;8.50;3.10;;;;;;;35.03;46.36;100643.59;20958540;28;19982;-73
2023/08/23 07:51:32;;;;;;;8.82;3.35;;;;;;;35.23;46.39;100645.47;20948711;28;20044;-73
2023/08/23 08:01:57;;;;;;;8.48;3.65;;;;;;;35.42;44.96;100642.78;20949144;28;20041;-73
2023/08/23 08:12:19;;;;;;;7.30;3.65;;;;;;;35.39;46.76;100640.31;20948985;28;20052;-73
2023/08/23 08:22:43;;;;;;;9.68;3.42;;;;;;;35.47;47.69;100650.63;20980908;28;20059;-73
2023/08/23 08:33:06;;;;;;;8.27;3.27;;;;;;;35.70;46.67;100652.19;20949931;28;20492;-73
2023/08/23 08:43:32;;;;;;;6.22;2.78;;;;;;;35.82;44.60;100655.69;20945501;28;20049;-73
2023/08/23 08:53:56;;;;;;;9.95;3.28;;;;;;;36.12;42.65;100652.84;20954834;28;20064;-73
2023/08/23 09:04:22;;;;;;;;;;;;;;;36.25;40.17;100631.47;20952831;28;20053;-73
2023/08/23 09:14:49;;;;;;;9.43;3.25;;;;;;;36.47;40.30;100643.19;20972170;28;20250;-73
2023/08/23 09:25:13;;;;;;;10.52;3.22;;;;;;;36.77;38.47;100634.78;20936812;28;20044;-73
2023/08/23 09:35:35;;;;;;;7.97;3.10;;;;;;;36.85;37.35;100639.53;20938388;28;20045;-73
2023/08/23 09:46:03;;;;;;;10.32;3.08;;;;;;;36.72;38.28;100646.25;20939000;28;20088;-73
2023/08/23 09:56:27;;;;;;;8.52;3.10;;;;;;;36.87;39.35;100649.41;20950493;28;20157;-73
2023/08/23 10:06:51;;;;;;;10.67;3.17;;;;;;;36.81;40.93;100649.13;20922738;28;20047;-72
2023/08/23 10:17:18;;;;;;;7.40;2.55;;;;;;;36.85;41.45;100659.69;20934000;28;20041;-73
2023/08/23 10:27:42;;;;;;;13.45;3.05;;;;;;;36.42;42.10;100642.75;20949986;28;20213;-73
2023/08/23 10:38:06;;;;;;;10.27;3.60;;;;;;;36.10;42.97;100641.13;20959937;28;20520;-72
2023/08/23 10:48:30;;;;;;;7.73;3.30;;;;;;;35.73;43.25;100649.16;20968516;28;20052;-73
2023/08/23 10:58:52;;;;;;;7.75;2.90;;;;;;;35.79;42.95;100647.72;20962951;28;20057;-72
2023/08/23 11:09:19;;;;;;;8.88;3.15;;;;;;;35.69;42.40;100638.56;20961305;28;20074;-73
2023/08/23 11:19:42;;;;;;;9.63;3.25;;;;;;;35.55;41.65;100643.44;20930991;28;20121;-73
2023/08/23 11:30:08;;;;;;;11.15;3.50;;;;;;;35.85;41.36;100642.50;20886340;28;20052;-73
2023/08/23 11:40:30;;;;;;;8.18;2.80;;;;;;;36.09;39.55;100642.13;20900524;28;20057;-74
2023/08/23 11:50:54;;;;;;;9.90;3.50;;;;;;;36.09;39.13;100630.28;20896781;28;20045;-73
2023/08/23 12:01:17;;;;;;;6.10;2.63;;;;;;;36.05;38.80;100615.94;20848320;28;20541;-73
2023/08/23 12:11:41;;;;;;;9.60;3.42;;;;;;;36.09;37.79;100622.03;20863785;28;20060;-73
2023/08/23 12:22:05;;;;;;;5.57;2.80;;;;;;;36.07;36.42;100616.66;20889577;28;20052;-73
2023/08/23 12:32:29;;;;;;;7.68;3.15;;;;;;;35.80;35.85;100610.97;20945710;28;20401;-73
2023/08/23 12:42:52;;;;;;;7.43;3.00;;;;;;;35.50;36.42;100604.53;20920599;28;20055;-72
2023/08/23 12:53:16;;;;;;;9.77;3.05;;;;;;;35.49;36.13;100607.41;20903402;28;20044;-72
2023/08/23 13:03:39;;;;;;;11.35;3.10;;;;;;;35.35;36.69;100603.16;20952176;28;20721;-72
2023/08/23 13:14:03;;;;;;;6.38;3.08;;;;;;;35.17;37.45;100605.66;20905735;28;20048;-73
2023/08/23 13:24:25;;;;;;;10.73;3.42;;;;;;;34.90;37.69;100616.34;20951300;28;20125;-73
2023/08/23 13:34:51;;;;;;;9.27;4.22;;;;;;;34.71;37.86;100608.88;20954251;28;20059;-72
2023/08/23 13:45:13;;;;;;;7.88;3.00;;;;;;;34.47;37.13;100590.91;20938568;28;20070;-73
2023/08/23 13:55:37;;;;;;;7.30;2.88;;;;;;;34.42;37.22;100607.75;20918745;28;20051;-73
2023/08/23 14:06:00;;;;;;;6.50;2.75;;;;;;;34.37;37.21;100599.06;20935876;28;20055;-73
2023/08/23 14:16:24;;;;;;;9.52;3.00;;;;;;;34.47;37.53;100601.88;20938662;28;20044;-74
2023/08/23 14:26:46;;;;;;;12.00;3.67;;;;;;;34.37;37.60;100596.34;20940912;28;20055;-73
2023/08/23 14:37:10;;;;;;;9.43;3.58;;;;;;;34.33;37.19;100597.59;20944592;28;20052;-73
2023/08/23 14:47:33;;;;;;;10.68;3.47;;;;;;;34.15;38.06;100583.56;20934906;28;20041;-73
2023/08/23 14:57:58;;;;;;;8.07;3.05;;;;;;;33.79;38.54;100598.53;20968662;28;21733;-74
2023/08/23 15:08:20;;;;;;;11.20;3.75;;;;;;;33.41;40.42;100595.34;20955714;28;20043;-74
2023/08/23 15:18:44;;;;;;;10.65;3.33;;;;;;;32.92;41.71;100595.69;20980768;28;20071;-75
2023/08/23 15:29:07;;;;;;;13.48;3.75;;;;;;;32.58;43.63;100594.72;20968643;28;20357;-74
2023/08/23 15:39:31;;;;;;;10.10;3.70;;;;;;;32.40;44.15;100597.03;20967760;28;20044;-74
2023/08/23 15:49:54;;;;;;;12.00;3.88;;;;;;;32.20;44.77;100590.38;20954760;28;20052;-74
2023/08/23 16:00:19;;;;;;;8.10;3.40;;;;;;;31.95;46.38;100588.63;20942642;28;20053;-74
2023/08/23 16:10:45;;;;;;;;;;;;;;;31.64;47.29;100600.09;20930504;28;20405;-74
2023/08/23 16:21:09;;;;;;;10.07;4.38;;;;;;;31.38;50.40;100602.00;20965658;28;19924;-75
2023/08/23 16:31:32;;;;;;;12.25;4.53;;;;;;;31.11;55.29;100606.78;20946197;28;20082;-72
2023/08/23 16:41:57;;;;;;;9.82;3.80;;;;;;;30.87;59.92;100607.50;20938773;28;20044;-74
2023/08/23 16:52:19;;;;;;;11.48;4.43;;;;;;;30.61;66.05;100623.94;20933561;28;20052;-74
2023/08/23 17:02:45;;;;;;;10.45;4.72;;;;;;;30.51;71.47;100634.63;20946639;28;20075;-73
2023/08/23 17:13:08;;;;;;;15.10;4.65;;;;;;;30.39;73.99;100633.56;20942259;28;20052;-73
2023/08/23 17:23:32;;;;;;;18.02;6.00;;;;;;;30.20;77.26;100640.38;20962946;28;20500;-74
2023/08/23 17:33:54;;;;;;;13.25;5.70;;;;;;;29.97;78.30;100644.66;20943952;28;20170;-73
2023/08/23 17:44:19;;;;;;;15.00;5.57;;;;;;;29.73;82.02;100669.78;20967851;28;20040;-74
2023/08/23 17:54:41;;;;;;;12.73;5.13;;;;;;;29.42;86.07;100682.75;20993881;28;20408;-74
2023/08/23 18:05:06;;;;;;;15.02;5.68;;;;;;;29.19;87.96;100685.06;20954270;28;20055;-73
2023/08/23 18:15:29;;;;;;;15.45;5.50;;;;;;;28.95;88.12;100681.13;20968014;28;20052;-73
2023/08/23 18:25:53;;;;;;;15.50;6.78;;;;;;;28.77;91.36;100704.00;20949027;28;20060;-73
2023/08/23 18:36:15;;;;;;;16.52;6.72;;;;;;;28.64;92.09;100714.72;20942036;28;20144;-73
2023/08/23 18:46:41;;;;;;;13.32;6.05;;;;;;;28.53;93.97;100733.50;20959119;28;20493;-73
2023/08/23 18:57:04;;;;;;;14.05;6.68;;;;;;;28.14;99.69;100731.28;20964364;28;20041;-74
2023/08/23 19:07:33;;;;;;;11.30;5.97;;;;;;;28.05;98.08;100734.50;20973410;28;20048;-73
2023/08/23 19:17:56;;;;;;;16.48;7.13;;;;;;;27.87;98.99;100751.81;20966101;28;20117;-72
2023/08/23 19:28:20;;;;;;;12.60;6.35;;;;;;;27.74;98.51;100767.91;20957536;28;20048;-73
2023/08/23 19:38:42;;;;;;;16.27;6.57;;;;;;;27.60;97.40;100760.53;20964409;28;20098;-73
2023/08/23 19:49:06;;;;;;;13.70;5.97;;;;;;;27.42;100.00;100783.22;20941733;28;20428;-72
2023/08/23 19:59:29;;;;;;;12.43;6.38;;;;;;;27.34;100.00;100778.19;20968390;28;20101;-73
2023/08/23 20:09:53;;;;;;;12.05;5.85;;;;;;;27.24;100.00;100784.19;20937673;28;20110;-73
2023/08/23 20:20:16;;;;;;;13.43;6.18;;;;;;;27.19;100.00;100786.25;20950283;28;20049;-73
2023/08/23 20:30:42;;;;;;;17.15;6.63;;;;;;;26.96;100.00;100782.94;20792769;28;20053;-73
2023/08/23 20:41:06;;;;;;;14.05;6.60;;;;;;;26.98;100.00;100779.28;20809068;28;20060;-73
2023/08/23 20:51:31;;;;;;;13.57;6.03;;;;;;;26.78;100.00;100782.97;20825081;28;20045;-72
2023/08/23 21:01:53;;;;;;;13.68;5.72;;;;;;;26.75;100.00;100781.28;20815793;28;20490;-74
2023/08/23 21:12:17;;;;;;;24.27;14.70;;;;;;;26.37;100.00;100777.81;20813791;28;20037;-74
2023/08/23 21:22:41;;;;;;;12.13;6.95;;;;;;;26.02;100.00;100779.47;20859218;28;20045;-74
2023/08/23 21:33:05;;;;;;;13.32;6.60;;;;;;;26.12;100.00;100779.91;20903960;28;20080;-73
2023/08/23 21:43:29;;;;;;;12.52;6.38;;;;;;;26.06;100.00;100762.13;20965025;28;20044;-72
2023/08/23 21:53:53;;;;;;;15.38;7.93;;;;;;;25.95;100.00;100752.78;20964424;28;20047;-73
2023/08/23 22:04:16;;;;;;;17.73;7.80;;;;;;;26.02;100.00;100736.19;20928451;28;20053;-73
2023/08/23 22:14:40;;;;;;;14.77;7.70;;;;;;;25.75;100.00;100741.09;20960461;28;20049;-72
2023/08/23 22:25:03;;;;;;;18.83;9.07;;;;;;;25.51;100.00;100736.81;20946665;28;20129;-72
2023/08/23 22:35:28;;;;;;;14.60;9.20;;;;;;;25.37;100.00;100723.91;20986515;28;20053;-72
2023/08/23 22:45:51;;;;;;;14.43;8.70;;;;;;;25.30;100.00;100718.88;20974097;28;20063;-73
2023/08/23 22:56:15;;;;;;;22.38;10.68;;;;;;;25.38;100.00;100706.75;20961934;28;20110;-73
2023/08/23 23:06:37;;;;;;;13.82;9.10;;;;;;;24.94;100.00;100702.50;20915021;28;20059;-73
2023/08/23 23:17:02;;;;;;;12.52;8.60;;;;;;;24.81;100.00;100691.31;20962883;28;20113;-72
2023/08/23 23:27:25;;;;;;;17.70;8.15;;;;;;;24.27;100.00;100694.59;20955808;28;20084;-72
2023/08/23 23:37:49;;;;;;;15.20;9.85;;;;;;;24.62;100.00;100688.53;20954994;28;20063;-73
2023/08/23 23:48:12;;;;;;;16.35;9.20;;;;;;;24.61;100.00;100691.34;20959696;28;20400;-73
2023/08/23 23:58:36;;;;;;;12.88;8.73;;;;;;;23.96;100.00;100680.59;20964311;28;20556;-72
